sensor_id;sensor_type;location;lat;lon;timestamp;P1;durP1;ratioP1;P2;durP2;ratioP2
39308;SDS011;26019;47.510;19.122;2023-06-22T00:09:58;21.30;;;12.43;;
39308;SDS011;26019;47.510;19.122;2023-06-22T00:20:00;23.40;;;11.02;;
39308;SDS011;26019;47.510;19.122;2023-06-22T00:30:03;19.80;;;9.90;;
39308;SDS011;26019;47.510;19.122;2023-06-22T00:40:06;18.85;;;10.93;;
39308;SDS011;26019;47.510;19.122;2023-06-22T00:50:10;16.92;;;9.95;;
39308;SDS011;26019;47.510;19.122;2023-06-22T01:00:19;23.73;;;11.52;;
39308;SDS011;26019;47.510;19.122;2023-06-22T01:20:45;21.23;;;10.70;;
39308;SDS011;26019;47.510;19.122;2023-06-22T01:30:48;16.20;;;10.77;;
39308;SDS011;26019;47.510;19.122;2023-06-22T01:41:04;39.63;;;12.45;;
39308;SDS011;26019;47.510;19.122;2023-06-22T01:51:08;16.65;;;10.80;;
39308;SDS011;26019;47.510;19.122;2023-06-22T02:01:10;17.73;;;11.73;;
39308;SDS011;26019;47.510;19.122;2023-06-22T02:11:14;19.70;;;11.07;;
39308;SDS011;26019;47.510;19.122;2023-06-22T02:21:20;20.90;;;11.43;;
39308;SDS011;26019;47.510;19.122;2023-06-22T02:31:22;17.80;;;11.55;;
39308;SDS011;26019;47.510;19.122;2023-06-22T02:41:32;20.67;;;11.73;;
39308;SDS011;26019;47.510;19.122;2023-06-22T02:51:34;24.98;;;12.00;;
39308;SDS011;26019;47.510;19.122;2023-06-22T03:01:40;17.88;;;11.73;;
39308;SDS011;26019;47.510;19.122;2023-06-22T03:11:42;22.98;;;12.85;;
39308;SDS011;26019;47.510;19.122;2023-06-22T03:21:45;22.00;;;12.88;;
39308;SDS011;26019;47.510;19.122;2023-06-22T03:31:48;22.95;;;13.30;;
39308;SDS011;26019;47.510;19.122;2023-06-22T03:41:49;26.13;;;13.75;;
39308;SDS011;26019;47.510;19.122;2023-06-22T03:51:52;31.55;;;15.93;;
39308;SDS011;26019;47.510;19.122;2023-06-22T04:01:53;27.23;;;14.80;;
39308;SDS011;26019;47.510;19.122;2023-06-22T04:11:55;23.55;;;12.80;;
39308;SDS011;26019;47.510;19.122;2023-06-22T04:21:59;19.70;;;12.02;;
39308;SDS011;26019;47.510;19.122;2023-06-22T04:32:01;24.73;;;13.25;;
39308;SDS011;26019;47.510;19.122;2023-06-22T04:42:09;25.60;;;12.55;;
39308;SDS011;26019;47.510;19.122;2023-06-22T04:52:11;20.73;;;11.57;;
39308;SDS011;26019;47.510;19.122;2023-06-22T05:02:16;16.13;;;9.27;;
39308;SDS011;26019;47.510;19.122;2023-06-22T05:12:18;17.25;;;8.77;;
39308;SDS011;26019;47.510;19.122;2023-06-22T05:22:20;18.33;;;11.60;;
39308;SDS011;26019;47.510;19.122;2023-06-22T05:32:22;28.17;;;11.18;;
39308;SDS011;26019;47.510;19.122;2023-06-22T05:42:26;19.88;;;8.95;;
39308;SDS011;26019;47.510;19.122;2023-06-22T05:52:29;18.80;;;8.82;;
39308;SDS011;26019;47.510;19.122;2023-06-22T06:02:32;19.63;;;8.73;;
39308;SDS011;26019;47.510;19.122;2023-06-22T06:12:35;16.55;;;6.88;;
39308;SDS011;26019;47.510;19.122;2023-06-22T06:22:39;13.15;;;4.75;;
39308;SDS011;26019;47.510;19.122;2023-06-22T06:32:42;12.75;;;4.43;;
39308;SDS011;26019;47.510;19.122;2023-06-22T06:42:46;12.07;;;4.50;;
39308;SDS011;26019;47.510;19.122;2023-06-22T06:52:50;12.45;;;4.97;;
39308;SDS011;26019;47.510;19.122;2023-06-22T07:02:53;11.18;;;4.22;;
39308;SDS011;26019;47.510;19.122;2023-06-22T07:12:55;9.57;;;3.70;;
39308;SDS011;26019;47.510;19.122;2023-06-22T07:22:59;9.70;;;3.88;;
39308;SDS011;26019;47.510;19.122;2023-06-22T07:33:01;13.90;;;3.45;;
39308;SDS011;26019;47.510;19.122;2023-06-22T07:43:10;8.63;;;3.53;;
39308;SDS011;26019;47.510;19.122;2023-06-22T07:53:11;14.23;;;3.55;;
39308;SDS011;26019;47.510;19.122;2023-06-22T08:03:13;10.95;;;3.50;;
39308;SDS011;26019;47.510;19.122;2023-06-22T08:13:15;7.65;;;3.55;;
39308;SDS011;26019;47.510;19.122;2023-06-22T08:23:18;7.85;;;4.18;;
39308;SDS011;26019;47.510;19.122;2023-06-22T08:33:19;7.90;;;4.68;;
39308;SDS011;26019;47.510;19.122;2023-06-22T08:43:28;10.40;;;4.47;;
39308;SDS011;26019;47.510;19.122;2023-06-22T08:53:31;8.57;;;5.10;;
39308;SDS011;26019;47.510;19.122;2023-06-22T09:03:33;14.63;;;5.80;;
39308;SDS011;26019;47.510;19.122;2023-06-22T09:13:38;9.20;;;5.68;;
39308;SDS011;26019;47.510;19.122;2023-06-22T09:23:39;10.25;;;5.65;;
39308;SDS011;26019;47.510;19.122;2023-06-22T09:33:42;11.75;;;5.60;;
39308;SDS011;26019;47.510;19.122;2023-06-22T09:43:44;10.85;;;6.22;;
39308;SDS011;26019;47.510;19.122;2023-06-22T09:53:46;18.30;;;7.88;;
39308;SDS011;26019;47.510;19.122;2023-06-22T10:03:48;11.55;;;6.57;;
39308;SDS011;26019;47.510;19.122;2023-06-22T10:13:52;12.38;;;6.72;;
39308;SDS011;26019;47.510;19.122;2023-06-22T10:23:54;12.48;;;7.45;;
39308;SDS011;26019;47.510;19.122;2023-06-22T10:33:57;10.07;;;6.05;;
39308;SDS011;26019;47.510;19.122;2023-06-22T10:43:59;15.40;;;7.03;;
39308;SDS011;26019;47.510;19.122;2023-06-22T10:54:01;10.93;;;6.80;;
39308;SDS011;26019;47.510;19.122;2023-06-22T11:04:03;7.85;;;6.00;;
39308;SDS011;26019;47.510;19.122;2023-06-22T11:14:06;10.73;;;6.15;;
39308;SDS011;26019;47.510;19.122;2023-06-22T11:24:09;9.93;;;6.28;;
39308;SDS011;26019;47.510;19.122;2023-06-22T11:34:13;11.30;;;6.20;;
39308;SDS011;26019;47.510;19.122;2023-06-22T11:44:17;10.07;;;7.00;;
39308;SDS011;26019;47.510;19.122;2023-06-22T11:54:18;14.20;;;6.00;;
39308;SDS011;26019;47.510;19.122;2023-06-22T12:04:20;9.60;;;5.82;;
39308;SDS011;26019;47.510;19.122;2023-06-22T12:14:22;11.13;;;5.80;;
39308;SDS011;26019;47.510;19.122;2023-06-22T12:24:25;6.72;;;5.00;;
39308;SDS011;26019;47.510;19.122;2023-06-22T12:34:26;10.50;;;5.97;;
39308;SDS011;26019;47.510;19.122;2023-06-22T12:44:28;12.00;;;7.05;;
39308;SDS011;26019;47.510;19.122;2023-06-22T12:54:38;12.32;;;5.75;;
39308;SDS011;26019;47.510;19.122;2023-06-22T13:04:55;11.05;;;5.85;;
39308;SDS011;26019;47.510;19.122;2023-06-22T13:14:56;6.63;;;5.10;;
39308;SDS011;26019;47.510;19.122;2023-06-22T13:24:59;6.67;;;5.20;;
39308;SDS011;26019;47.510;19.122;2023-06-22T13:35:01;9.07;;;5.18;;
39308;SDS011;26019;47.510;19.122;2023-06-22T13:55:09;10.43;;;5.68;;
39308;SDS011;26019;47.510;19.122;2023-06-22T14:05:11;10.65;;;5.72;;
39308;SDS011;26019;47.510;19.122;2023-06-22T14:15:13;15.38;;;5.80;;
39308;SDS011;26019;47.510;19.122;2023-06-22T14:25:16;9.43;;;6.67;;
39308;SDS011;26019;47.510;19.122;2023-06-22T14:35:19;10.73;;;6.85;;
39308;SDS011;26019;47.510;19.122;2023-06-22T14:45:23;7.88;;;4.93;;
39308;SDS011;26019;47.510;19.122;2023-06-22T14:55:25;9.18;;;5.55;;
39308;SDS011;26019;47.510;19.122;2023-06-22T15:05:28;9.85;;;5.85;;
39308;SDS011;26019;47.510;19.122;2023-06-22T15:25:53;11.82;;;5.70;;
39308;SDS011;26019;47.510;19.122;2023-06-22T15:36:00;5.33;;;4.83;;
39308;SDS011;26019;47.510;19.122;2023-06-22T15:46:07;13.20;;;5.60;;
39308;SDS011;26019;47.510;19.122;2023-06-22T15:56:11;13.60;;;6.27;;
39308;SDS011;26019;47.510;19.122;2023-06-22T16:06:13;10.38;;;5.50;;
39308;SDS011;26019;47.510;19.122;2023-06-22T16:16:15;11.95;;;6.00;;
39308;SDS011;26019;47.510;19.122;2023-06-22T16:26:18;9.05;;;5.43;;
39308;SDS011;26019;47.510;19.122;2023-06-22T16:36:20;12.02;;;6.35;;
39308;SDS011;26019;47.510;19.122;2023-06-22T16:46:22;8.93;;;6.45;;
39308;SDS011;26019;47.510;19.122;2023-06-22T16:56:30;12.10;;;6.15;;
39308;SDS011;26019;47.510;19.122;2023-06-22T17:06:35;11.70;;;6.15;;
39308;SDS011;26019;47.510;19.122;2023-06-22T17:16:42;14.13;;;7.25;;
39308;SDS011;26019;47.510;19.122;2023-06-22T17:26:47;10.77;;;6.20;;
39308;SDS011;26019;47.510;19.122;2023-06-22T17:36:51;13.93;;;6.70;;
39308;SDS011;26019;47.510;19.122;2023-06-22T17:46:54;17.30;;;7.05;;
39308;SDS011;26019;47.510;19.122;2023-06-22T17:56:58;14.30;;;6.85;;
39308;SDS011;26019;47.510;19.122;2023-06-22T18:07:00;14.38;;;6.65;;
39308;SDS011;26019;47.510;19.122;2023-06-22T18:17:04;10.88;;;7.18;;
39308;SDS011;26019;47.510;19.122;2023-06-22T18:27:07;12.02;;;6.97;;
39308;SDS011;26019;47.510;19.122;2023-06-22T18:37:14;11.52;;;7.13;;
39308;SDS011;26019;47.510;19.122;2023-06-22T18:47:19;14.57;;;7.65;;
39308;SDS011;26019;47.510;19.122;2023-06-22T18:57:33;9.98;;;7.28;;
39308;SDS011;26019;47.510;19.122;2023-06-22T19:18:31;11.77;;;7.30;;
39308;SDS011;26019;47.510;19.122;2023-06-22T19:28:31;10.25;;;7.38;;
39308;SDS011;26019;47.510;19.122;2023-06-22T19:38:40;13.73;;;7.53;;
39308;SDS011;26019;47.510;19.122;2023-06-22T19:48:42;14.07;;;7.07;;
39308;SDS011;26019;47.510;19.122;2023-06-22T19:58:46;10.50;;;7.07;;
39308;SDS011;26019;47.510;19.122;2023-06-22T20:08:50;12.20;;;7.15;;
39308;SDS011;26019;47.510;19.122;2023-06-22T20:19:08;13.15;;;7.18;;
39308;SDS011;26019;47.510;19.122;2023-06-22T20:29:23;9.63;;;6.70;;
39308;SDS011;26019;47.510;19.122;2023-06-22T20:39:29;10.80;;;7.30;;
39308;SDS011;26019;47.510;19.122;2023-06-22T20:49:31;11.93;;;9.05;;
39308;SDS011;26019;47.510;19.122;2023-06-22T20:59:33;12.60;;;7.57;;
39308;SDS011;26019;47.510;19.122;2023-06-22T21:09:38;13.60;;;7.97;;
39308;SDS011;26019;47.510;19.122;2023-06-22T21:19:52;13.75;;;8.75;;
39308;SDS011;26019;47.510;19.122;2023-06-22T21:29:54;15.63;;;10.02;;
39308;SDS011;26019;47.510;19.122;2023-06-22T21:39:58;12.27;;;10.13;;
39308;SDS011;26019;47.510;19.122;2023-06-22T21:50:00;14.02;;;10.05;;
39308;SDS011;26019;47.510;19.122;2023-06-22T22:00:04;18.92;;;11.70;;
39308;SDS011;26019;47.510;19.122;2023-06-22T22:10:07;12.52;;;9.52;;
39308;SDS011;26019;47.510;19.122;2023-06-22T22:20:12;12.68;;;10.30;;
39308;SDS011;26019;47.510;19.122;2023-06-22T22:30:14;16.05;;;10.93;;
39308;SDS011;26019;47.510;19.122;2023-06-22T22:40:16;16.77;;;11.20;;
39308;SDS011;26019;47.510;19.122;2023-06-22T22:50:27;15.55;;;11.52;;
39308;SDS011;26019;47.510;19.122;2023-06-22T23:00:32;13.38;;;10.98;;
39308;SDS011;26019;47.510;19.122;2023-06-22T23:10:33;14.98;;;12.00;;
39308;SDS011;26019;47.510;19.122;2023-06-22T23:20:36;13.02;;;11.60;;
39308;SDS011;26019;47.510;19.122;2023-06-22T23:30:39;18.23;;;11.82;;
39308;SDS011;26019;47.510;19.122;2023-06-22T23:40:44;15.30;;;11.90;;
39308;SDS011;26019;47.510;19.122;2023-06-22T23:50:47;15.60;;;11.52;;
